Time;durP1;ratioP1;P1;durP2;ratioP2;P2;SDS_P1;SDS_P2;PMS_P1;PMS_P2;Temp;Humidity;BMP_temperature;BMP_pressure;BME280_temperature;BME280_humidity;BME280_pressure;Samples;Min_cycle;Max_cycle;Signal;HPM_P1;HPM_P2
2022/10/27 00:00:23;;;;;;;12.95;7.17;;;26.30;97.00;;;;;;1860398;75;21130;-83
2022/10/27 00:02:54;;;;;;;13.35;6.30;;;26.20;96.90;;;;;;1858179;75;21180;-81
2022/10/27 00:05:29;;;;;;;13.70;8.40;;;26.30;97.00;;;;;;1794975;78;21495;-81
2022/10/27 00:08:00;;;;;;;14.20;7.47;;;26.30;96.90;;;;;;1795054;78;21184;-81
2022/10/27 00:10:31;;;;;;;11.43;7.53;;;26.40;96.90;;;;;;1795631;77;21211;-79
2022/10/27 00:13:02;;;;;;;14.60;7.58;;;26.30;96.80;;;;;;1795995;77;21233;-81
2022/10/27 00:15:33;;;;;;;13.88;7.37;;;26.30;96.80;;;;;;1801457;77;21163;-83
2022/10/27 00:18:06;;;;;;;14.90;6.03;;;26.40;96.80;;;;;;1797828;77;21222;-82
2022/10/27 00:20:37;;;;;;;13.03;6.30;;;26.40;96.70;;;;;;1797864;78;21242;-81
2022/10/27 00:23:10;;;;;;;9.75;5.80;;;26.40;96.60;;;;;;1796728;79;21154;-81
2022/10/27 00:25:41;;;;;;;9.35;4.45;;;26.40;96.60;;;;;;1802382;77;21213;-81
2022/10/27 00:28:12;;;;;;;9.33;4.42;;;26.50;96.50;;;;;;1786182;79;21128;-80
2022/10/27 00:30:44;;;;;;;11.70;5.78;;;26.50;96.30;;;;;;1793856;77;21229;-82
2022/10/27 00:33:15;;;;;;;11.43;5.95;;;26.50;96.20;;;;;;1787714;78;21176;-82
2022/10/27 00:35:45;;;;;;;10.98;4.85;;;26.50;96.20;;;;;;1787384;79;21160;-83
2022/10/27 00:38:16;;;;;;;9.75;4.00;;;26.50;96.00;;;;;;1786273;77;21834;-83
2022/10/27 00:40:49;;;;;;;11.12;5.45;;;26.50;96.00;;;;;;1791637;79;21093;-83
2022/10/27 00:43:31;;;;;;;10.45;5.12;;;26.50;96.00;;;;;;1792858;79;21148;-84
2022/10/27 00:46:04;;;;;;;14.00;7.37;;;26.60;95.90;;;;;;1788106;78;21710;-82
2022/10/27 00:48:35;;;;;;;17.55;9.70;;;26.60;95.90;;;;;;1784258;78;21144;-82
2022/10/27 00:51:12;;;;;;;13.38;6.37;;;26.60;95.80;;;;;;1791790;78;21199;-82
2022/10/27 00:53:43;;;;;;;19.25;10.63;;;26.60;95.80;;;;;;1791927;78;21140;-83
2022/10/27 00:56:14;;;;;;;11.20;4.83;;;26.60;95.80;;;;;;1799382;78;21134;-81
2022/10/27 00:58:50;;;;;;;10.13;5.08;;;26.60;95.80;;;;;;1799259;77;21097;-81
2022/10/27 01:01:22;;;;;;;7.20;3.40;;;26.70;95.80;;;;;;1792160;78;21177;-81
2022/10/27 01:03:53;;;;;;;8.43;3.58;;;26.70;95.80;;;;;;1805611;76;21132;-82
2022/10/27 01:06:25;;;;;;;8.13;3.10;;;26.70;95.50;;;;;;1848534;76;21208;-83
2022/10/27 01:08:58;;;;;;;8.03;2.92;;;26.70;95.50;;;;;;1845069;76;21669;-82
2022/10/27 01:11:28;;;;;;;10.20;3.87;;;26.70;95.40;;;;;;1846697;76;21899;-82
2022/10/27 01:14:11;;;;;;;9.15;3.70;;;26.80;95.30;;;;;;1851356;76;21142;-81
2022/10/27 01:16:57;;;;;;;7.60;3.08;;;26.80;95.30;;;;;;1831325;77;21220;-79
2022/10/27 01:20:08;;;;;;;6.37;2.30;;;26.80;95.20;;;;;;1789771;78;21086;-80
2022/10/27 01:22:52;;;;;;;7.45;2.92;;;26.80;95.10;;;;;;1808165;76;21221;-83
2022/10/27 01:25:50;;;;;;;5.08;2.45;;;26.90;95.20;;;;;;1851148;74;21234;-84
2022/10/27 01:29:01;;;;;;;6.28;2.25;;;26.90;94.90;;;;;;1850720;76;21175;-85
2022/10/27 01:31:40;;;;;;;9.10;3.05;;;26.90;94.90;;;;;;1789504;79;21164;-84
2022/10/27 01:34:35;;;;;;;9.55;2.92;;;26.90;94.90;;;;;;1830557;77;21178;-83
2022/10/27 01:37:17;;;;;;;7.75;3.72;;;27.00;95.00;;;;;;1847574;77;21214;-84
2022/10/27 01:40:03;;;;;;;7.55;3.83;;;27.00;95.10;;;;;;1853426;77;21139;-83
2022/10/27 01:42:39;;;;;;;8.20;3.42;;;27.10;95.10;;;;;;1850848;77;21833;-85
2022/10/27 01:45:13;;;;;;;9.65;3.75;;;27.10;95.10;;;;;;1845856;76;21134;-76
2022/10/27 01:47:44;;;;;;;46.88;6.85;;;27.10;95.10;;;;;;1845144;76;21622;-77
2022/10/27 01:50:21;;;;;;;24.10;3.90;;;27.10;95.10;;;;;;1785557;79;21150;-78
2022/10/27 01:52:51;;;;;;;9.58;3.52;;;27.20;95.10;;;;;;1849557;76;21239;-78
2022/10/27 01:55:42;;;;;;;7.12;3.22;;;27.20;94.90;;;;;;1841135;77;21586;-77
2022/10/27 01:58:15;;;;;;;6.78;3.02;;;27.30;94.80;;;;;;1848589;77;21150;-79
2022/10/27 02:00:51;;;;;;;8.00;3.25;;;27.30;94.60;;;;;;1847061;76;21178;-79
2022/10/27 02:03:27;;;;;;;9.63;3.37;;;27.40;94.70;;;;;;1840953;77;21205;-81
2022/10/27 02:06:04;;;;;;;7.62;2.72;;;27.30;94.60;;;;;;1838492;76;21123;-80
2022/10/27 02:08:43;;;;;;;7.30;3.22;;;27.40;94.50;;;;;;1831916;77;21148;-80
2022/10/27 02:11:16;;;;;;;7.55;3.47;;;27.40;94.40;;;;;;1807809;78;21145;-79
2022/10/27 02:13:47;;;;;;;8.30;3.50;;;27.40;94.50;;;;;;1802503;78;21151;-77
2022/10/27 02:16:21;;;;;;;11.83;3.22;;;27.50;94.40;;;;;;1855820;75;21205;-77
2022/10/27 02:19:09;;;;;;;8.73;3.40;;;27.50;94.30;;;;;;1860459;74;21103;-76
2022/10/27 02:21:45;;;;;;;10.82;3.20;;;27.60;94.30;;;;;;1848958;75;21642;-77
2022/10/27 02:24:16;;;;;;;7.35;3.12;;;27.60;94.20;;;;;;1856560;74;21264;-77
2022/10/27 02:26:55;;;;;;;10.45;3.12;;;27.60;94.20;;;;;;1854779;77;21265;-78
2022/10/27 02:29:46;;;;;;;9.28;3.35;;;27.70;94.10;;;;;;1855860;75;21742;-75
2022/10/27 02:32:23;;;;;;;11.78;3.80;;;27.70;93.80;;;;;;1852330;74;21131;-75
2022/10/27 02:34:54;;;;;;;6.92;3.33;;;27.80;94.00;;;;;;1866197;74;21123;-76
2022/10/27 02:37:34;;;;;;;11.28;3.40;;;27.80;94.00;;;;;;1835048;76;22306;-74
2022/10/27 02:40:05;;;;;;;14.45;4.12;;;27.90;93.90;;;;;;1828169;76;21832;-75
2022/10/27 02:42:36;;;;;;;7.97;3.17;;;27.90;93.90;;;;;;1854488;75;21138;-77
2022/10/27 02:45:07;;;;;;;7.03;3.20;;;27.90;93.90;;;;;;1855521;74;21673;-76
2022/10/27 02:47:38;;;;;;;8.43;2.95;;;28.00;93.90;;;;;;1842540;74;21235;-75
2022/10/27 02:50:09;;;;;;;8.83;3.00;;;28.10;93.70;;;;;;1846323;75;21169;-75
2022/10/27 02:52:46;;;;;;;7.70;2.98;;;28.20;93.40;;;;;;1852083;75;21193;-77
2022/10/27 02:55:17;;;;;;;6.80;2.35;;;28.30;93.30;;;;;;1853935;74;21629;-75
2022/10/27 02:57:48;;;;;;;8.88;2.62;;;28.40;92.80;;;;;;1858333;75;21186;-75
2022/10/27 03:00:19;;;;;;;7.75;2.75;;;28.50;92.70;;;;;;1857638;74;21185;-76
2022/10/27 03:02:50;;;;;;;6.55;2.37;;;28.60;92.20;;;;;;1857156;75;21220;-74
2022/10/27 03:05:22;;;;;;;5.80;2.25;;;28.70;91.80;;;;;;1867373;74;21729;-76
2022/10/27 03:07:53;;;;;;;6.47;2.08;;;28.80;91.70;;;;;;1828521;77;21725;-74
2022/10/27 03:10:24;;;;;;;8.83;2.62;;;29.00;91.20;;;;;;1867956;74;21142;-76
2022/10/27 03:12:54;;;;;;;6.22;2.62;;;29.10;91.20;;;;;;1823190;77;21167;-76
2022/10/27 03:15:25;;;;;;;7.22;2.22;;;29.10;90.90;;;;;;1885000;74;21445;-76
2022/10/27 03:17:58;;;;;;;10.70;2.85;;;29.20;91.00;;;;;;1832417;77;21092;-77
2022/10/27 03:20:35;;;;;;;8.28;2.60;;;29.30;91.10;;;;;;1828890;77;21675;-77
2022/10/27 03:23:08;;;;;;;5.58;2.47;;;29.40;90.70;;;;;;1828440;77;21202;-75
2022/10/27 03:25:44;;;;;;;4.67;2.17;;;29.50;90.90;;;;;;1829862;77;21178;-75
2022/10/27 03:28:13;;;;;;;7.10;2.75;;;29.60;90.40;;;;;;1826610;76;21191;-78
2022/10/27 03:30:47;;;;;;;10.08;2.27;;;29.80;90.40;;;;;;1827885;77;21128;-75
2022/10/27 03:33:19;;;;;;;6.55;2.10;;;29.90;90.40;;;;;;1828315;77;21167;-77
2022/10/27 03:35:52;;;;;;;5.87;2.40;;;30.10;90.10;;;;;;1825211;78;21187;-75
2022/10/27 03:38:23;;;;;;;8.13;3.20;;;30.20;90.00;;;;;;1822199;78;21171;-76
2022/10/27 03:40:54;;;;;;;5.92;2.15;;;30.40;89.50;;;;;;1827611;78;21104;-75
2022/10/27 03:43:25;;;;;;;5.05;2.30;;;30.40;88.90;;;;;;1824942;78;21182;-75
2022/10/27 03:45:56;;;;;;;9.43;2.70;;;30.50;89.30;;;;;;1793677;79;21626;-77
2022/10/27 03:48:28;;;;;;;7.53;2.80;;;30.60;88.60;;;;;;1877564;74;21200;-77
2022/10/27 03:51:02;;;;;;;6.33;2.77;;;30.60;88.00;;;;;;1826466;76;21235;-74
2022/10/27 03:53:33;;;;;;;6.30;2.40;;;30.60;88.70;;;;;;1880819;76;21099;-75
2022/10/27 03:56:04;;;;;;;7.10;2.65;;;30.60;88.00;;;;;;1827526;78;21163;-76
2022/10/27 03:58:35;;;;;;;8.00;2.22;;;30.60;87.80;;;;;;1825343;78;21155;-77
2022/10/27 04:01:07;;;;;;;5.50;2.55;;;30.50;87.70;;;;;;1870331;76;21276;-74
2022/10/27 04:03:38;;;;;;;8.60;2.72;;;30.50;88.80;;;;;;1823465;77;21128;-76
2022/10/27 04:08:47;;;;;;;6.47;2.50;;;30.60;88.00;;;;;;1872228;76;21704;-73
2022/10/27 04:11:18;;;;;;;7.28;2.27;;;30.70;87.70;;;;;;1831352;77;22093;-74
2022/10/27 04:13:55;;;;;;;5.33;2.17;;;30.80;87.20;;;;;;1873717;76;21127;-76
2022/10/27 04:16:27;;;;;;;6.90;2.33;;;30.80;86.40;;;;;;1833520;77;21147;-75
2022/10/27 04:18:58;;;;;;;6.55;2.27;;;30.80;86.50;;;;;;1879947;76;21135;-75
2022/10/27 04:21:29;;;;;;;7.72;2.22;;;30.80;86.80;;;;;;1815752;77;21127;-73
2022/10/27 04:24:01;;;;;;;6.37;2.50;;;30.70;87.50;;;;;;1879090;76;21167;-73
2022/10/27 04:26:35;;;;;;;7.20;3.12;;;30.60;86.60;;;;;;1827097;77;21666;-73
2022/10/27 04:29:06;;;;;;;8.40;2.70;;;30.60;87.00;;;;;;1840166;77;21697;-72
2022/10/27 04:31:38;;;;;;;6.60;2.42;;;30.50;87.00;;;;;;1875115;76;21170;-71
2022/10/27 04:34:09;;;;;;;6.03;2.40;;;30.50;87.00;;;;;;1824657;77;21206;-73
2022/10/27 04:36:40;;;;;;;7.37;2.42;;;30.50;86.90;;;;;;1866365;76;21151;-73
2022/10/27 04:39:13;;;;;;;7.10;2.35;;;30.60;87.00;;;;;;1817738;77;21124;-74
2022/10/27 04:41:43;;;;;;;6.25;2.17;;;30.60;86.90;;;;;;1832171;77;21217;-73
2022/10/27 04:44:15;;;;;;;6.67;2.27;;;30.70;86.80;;;;;;1872181;76;21131;-73
2022/10/27 04:46:46;;;;;;;6.97;2.25;;;30.70;87.10;;;;;;1843033;76;21131;-73
2022/10/27 04:49:23;;;;;;;6.05;2.30;;;30.70;87.30;;;;;;1856613;76;21537;-72
2022/10/27 04:51:54;;;;;;;7.03;2.65;;;30.70;87.40;;;;;;1832150;77;21151;-73
2022/10/27 04:54:25;;;;;;;5.00;2.02;;;30.70;86.90;;;;;;1876709;76;21163;-71
2022/10/27 04:56:56;;;;;;;8.33;2.30;;;30.70;85.80;;;;;;1826819;77;21186;-73
2022/10/27 04:59:27;;;;;;;5.12;1.98;;;30.80;85.80;;;;;;1871985;74;21134;-73
2022/10/27 05:01:58;;;;;;;8.10;2.27;;;30.80;86.60;;;;;;1828151;77;21118;-72
2022/10/27 05:04:29;;;;;;;4.55;1.55;;;30.90;84.70;;;;;;1871804;76;21080;-73
2022/10/27 05:07:04;;;;;;;8.45;2.30;;;31.00;84.90;;;;;;1823814;77;21127;-75
2022/10/27 05:09:35;;;;;;;6.62;2.17;;;31.10;84.90;;;;;;1827945;78;21113;-74
2022/10/27 05:12:08;;;;;;;6.22;2.70;;;31.30;84.80;;;;;;1829858;78;21101;-76
2022/10/27 05:14:39;;;;;;;6.25;1.98;;;31.50;83.70;;;;;;1820337;77;21092;-75
2022/10/27 05:17:10;;;;;;;5.45;1.90;;;31.70;83.50;;;;;;1831799;78;21187;-74
2022/10/27 05:19:42;;;;;;;6.12;2.33;;;31.80;82.30;;;;;;1823716;77;21209;-75
2022/10/27 05:22:13;;;;;;;6.83;3.10;;;31.90;82.40;;;;;;1849603;76;21827;-75
2022/10/27 05:24:44;;;;;;;5.17;2.05;;;32.00;82.40;;;;;;1862804;76;21131;-75
2022/10/27 05:27:17;;;;;;;7.20;2.10;;;32.10;82.00;;;;;;1811770;78;21206;-75
2022/10/27 05:29:50;;;;;;;5.45;1.92;;;32.20;82.00;;;;;;1787405;79;21240;-75
2022/10/27 05:32:23;;;;;;;5.40;1.98;;;32.30;81.90;;;;;;1816638;78;21166;-74
2022/10/27 05:34:54;;;;;;;6.20;2.25;;;32.40;81.20;;;;;;1820587;78;21607;-73
2022/10/27 05:37:25;;;;;;;7.22;2.00;;;32.40;80.40;;;;;;1810488;78;21131;-76
2022/10/27 05:39:56;;;;;;;6.62;1.90;;;32.50;80.20;;;;;;1828895;78;21205;-76
2022/10/27 05:42:28;;;;;;;5.85;2.15;;;32.40;80.90;;;;;;1812314;78;21151;-77
2022/10/27 05:45:00;;;;;;;7.53;1.90;;;32.50;80.70;;;;;;1825059;77;21981;-75
2022/10/27 05:47:31;;;;;;;17.65;2.52;;;32.50;80.80;;;;;;1823198;76;21903;-75
2022/10/27 05:50:02;;;;;;;6.35;1.85;;;32.50;79.90;;;;;;1824695;78;21238;-77
2022/10/27 05:52:33;;;;;;;4.75;2.20;;;32.60;80.20;;;;;;1870123;75;21123;-74
2022/10/27 05:55:03;;;;;;;6.78;2.62;;;32.60;79.30;;;;;;1820138;78;21197;-75
2022/10/27 05:57:34;;;;;;;5.53;1.82;;;32.60;83.80;;;;;;1802377;78;21593;-77
2022/10/27 06:00:06;;;;;;;6.22;2.20;;;32.80;85.50;;;;;;1814536;78;21143;-74
2022/10/27 06:02:37;;;;;;;4.65;1.90;;;32.80;91.40;;;;;;1817031;77;21264;-73
2022/10/27 06:05:08;;;;;;;3.60;1.67;;;32.60;82.70;;;;;;1813426;78;21198;-76
2022/10/27 06:07:39;;;;;;;4.17;1.72;;;32.60;79.50;;;;;;1794462;77;21212;-74
2022/10/27 06:10:11;;;;;;;4.05;1.62;;;32.70;90.10;;;;;;1787583;79;21127;-75
2022/10/27 06:12:42;;;;;;;5.28;1.95;;;32.50;90.60;;;;;;1839167;76;21104;-75
2022/10/27 06:15:14;;;;;;;3.75;1.65;;;32.40;89.20;;;;;;1832171;78;21140;-76
2022/10/27 06:17:44;;;;;;;3.60;1.70;;;32.40;87.50;;;;;;1805133;79;21055;-76
2022/10/27 06:20:16;;;;;;;5.08;1.77;;;32.30;89.90;;;;;;1841416;76;22079;-76
2022/10/27 06:22:47;;;;;;;4.10;1.55;;;32.20;84.10;;;;;;1828456;77;21238;-74
2022/10/27 06:25:21;;;;;;;3.55;2.05;;;32.10;85.20;;;;;;1803878;79;21135;-76
2022/10/27 06:27:52;;;;;;;5.33;1.70;;;32.30;92.40;;;;;;1798660;79;21147;-74
2022/10/27 06:30:24;;;;;;;5.53;1.67;;;32.10;88.30;;;;;;1851828;76;21146;-75
2022/10/27 06:32:55;;;;;;;4.42;1.72;;;32.50;91.00;;;;;;1834032;76;21184;-75
2022/10/27 06:35:26;;;;;;;3.50;1.12;;;32.00;84.50;;;;;;1800465;79;21738;-75
2022/10/27 06:37:57;;;;;;;5.83;1.90;;;32.00;84.00;;;;;;1834768;77;21152;-76
2022/10/27 06:40:28;;;;;;;6.20;2.02;;;32.00;83.40;;;;;;1802995;79;21168;-76
2022/10/27 06:42:59;;;;;;;3.95;2.05;;;32.00;83.90;;;;;;1803942;79;21102;-75
2022/10/27 06:45:32;;;;;;;4.35;1.98;;;32.10;84.20;;;;;;1791303;79;21143;-76
2022/10/27 06:48:04;;;;;;;5.50;1.85;;;31.80;84.70;;;;;;1797477;79;21182;-76
2022/10/27 06:50:35;;;;;;;3.83;1.57;;;31.90;86.30;;;;;;1843291;76;21226;-77
2022/10/27 06:53:08;;;;;;;4.87;2.12;;;31.90;87.30;;;;;;1840176;76;21160;-74
2022/10/27 06:55:40;;;;;;;4.85;1.57;;;31.90;91.20;;;;;;1793371;79;21183;-76
2022/10/27 06:58:13;;;;;;;5.95;1.85;;;31.90;92.50;;;;;;1792016;78;21218;-75
2022/10/27 07:00:48;;;;;;;7.22;1.90;;;32.00;92.90;;;;;;1816414;77;21076;-77
2022/10/27 07:03:18;;;;;;;3.85;1.65;;;31.90;87.80;;;;;;1801811;79;21136;-77
2022/10/27 07:05:50;;;;;;;5.67;1.62;;;31.80;88.50;;;;;;1795848;79;21149;-76
2022/10/27 07:08:22;;;;;;;3.30;1.40;;;31.90;90.40;;;;;;1782606;79;21217;-76
2022/10/27 07:10:55;;;;;;;3.45;1.45;;;31.60;97.30;;;;;;1844875;76;21649;-74
2022/10/27 07:13:27;;;;;;;6.65;1.87;;;31.60;94.00;;;;;;1854947;76;21163;-75
2022/10/27 07:15:57;;;;;;;5.40;1.50;;;31.50;94.00;;;;;;1859422;76;21106;-76
2022/10/27 07:18:28;;;;;;;4.60;1.50;;;31.50;94.60;;;;;;1835186;77;21499;-75
2022/10/27 07:21:00;;;;;;;3.47;1.30;;;31.40;93.00;;;;;;1848254;77;21276;-75
2022/10/27 07:23:31;;;;;;;4.65;1.35;;;31.50;93.40;;;;;;1841094;76;21195;-76
2022/10/27 07:26:05;;;;;;;7.50;1.40;;;31.60;99.30;;;;;;1852679;76;21154;-74
2022/10/27 07:28:36;;;;;;;4.87;1.35;;;31.60;94.20;;;;;;1838547;77;21167;-75
2022/10/27 07:31:08;;;;;;;2.92;1.32;;;31.50;93.00;;;;;;1848745;76;21118;-75
2022/10/27 07:33:39;;;;;;;3.20;1.27;;;31.50;92.70;;;;;;1841175;76;21116;-74
2022/10/27 07:36:10;;;;;;;3.80;2.30;;;31.40;92.80;;;;;;1848438;76;21182;-74
2022/10/27 07:38:41;;;;;;;5.22;2.40;;;31.40;92.80;;;;;;1838817;77;21084;-76
2022/10/27 07:41:12;;;;;;;3.85;1.75;;;31.50;96.80;;;;;;1853389;76;21252;-76
2022/10/27 07:43:47;;;;;;;3.33;1.72;;;31.80;96.80;;;;;;1841598;77;21201;-74
2022/10/27 07:46:17;;;;;;;4.08;1.45;;;31.60;96.10;;;;;;1837743;76;21873;-78
2022/10/27 07:48:50;;;;;;;2.52;1.25;;;31.70;96.10;;;;;;1841486;77;21201;-75
2022/10/27 07:51:26;;;;;;;2.47;1.20;;;31.50;96.00;;;;;;1842288;77;21230;-71
2022/10/27 07:53:57;;;;;;;4.70;1.57;;;31.70;96.10;;;;;;1835105;76;21092;-75
2022/10/27 07:56:27;;;;;;;4.17;1.70;;;31.60;96.20;;;;;;1844778;76;21157;-76
2022/10/27 07:58:59;;;;;;;4.10;2.25;;;31.60;96.80;;;;;;1847491;77;21119;-75
2022/10/27 08:01:30;;;;;;;3.58;1.82;;;31.60;97.20;;;;;;1850496;76;21186;-74
2022/10/27 08:04:01;;;;;;;3.15;1.60;;;31.30;96.80;;;;;;1856578;76;21516;-74
2022/10/27 08:06:32;;;;;;;2.37;1.30;;;31.60;94.40;;;;;;1807381;78;21187;-75
2022/10/27 08:09:03;;;;;;;4.28;1.50;;;31.30;91.10;;;;;;1851124;76;21233;-74
2022/10/27 08:11:34;;;;;;;4.00;1.20;;;31.60;93.60;;;;;;1832797;76;21157;-75
2022/10/27 08:14:05;;;;;;;4.50;1.10;;;31.50;94.30;;;;;;1854218;75;21190;-76
2022/10/27 08:16:36;;;;;;;4.03;1.37;;;31.40;95.10;;;;;;1836642;76;21215;-75
2022/10/27 08:19:07;;;;;;;5.60;1.72;;;31.40;96.10;;;;;;1853977;77;21208;-77
2022/10/27 08:21:38;;;;;;;4.42;1.17;;;31.30;93.20;;;;;;1840366;76;21156;-75
2022/10/27 08:24:15;;;;;;;3.50;1.00;;;31.50;95.50;;;;;;1840588;76;21184;-75
2022/10/27 08:26:52;;;;;;;3.52;1.27;;;31.40;97.60;;;;;;1830276;78;21117;-75
2022/10/27 08:29:33;;;;;;;3.30;1.20;;;31.40;96.50;;;;;;1843978;77;21651;-74
2022/10/27 08:32:04;;;;;;;2.62;1.00;;;31.70;94.70;;;;;;1833483;78;21164;-76
2022/10/27 08:34:36;;;;;;;2.67;1.10;;;31.50;94.20;;;;;;1843575;77;21157;-73
2022/10/27 08:37:07;;;;;;;3.40;1.05;;;31.60;94.30;;;;;;1819341;78;21185;-75
2022/10/27 08:39:39;;;;;;;3.12;1.00;;;31.60;94.20;;;;;;1841105;76;21136;-74
2022/10/27 08:42:20;;;;;;;3.02;1.02;;;31.70;94.40;;;;;;1832779;77;21556;-75
2022/10/27 08:45:02;;;;;;;3.35;1.10;;;31.50;92.30;;;;;;1848771;77;21187;-74
2022/10/27 08:47:36;;;;;;;4.22;1.50;;;31.50;89.70;;;;;;1846275;76;22136;-74
2022/10/27 08:50:18;;;;;;;3.12;1.37;;;31.70;87.80;;;;;;1853808;77;21210;-75
2022/10/27 08:53:04;;;;;;;2.65;1.10;;;31.70;89.50;;;;;;1836046;76;21561;-74
2022/10/27 08:55:38;;;;;;;4.00;1.17;;;31.60;90.10;;;;;;1830276;76;21132;-74
2022/10/27 08:58:30;;;;;;;4.15;2.35;;;31.80;90.60;;;;;;1846718;77;21089;-75
2022/10/27 09:01:04;;;;;;;3.47;2.12;;;31.80;91.10;;;;;;1834575;76;21226;-73
2022/10/27 09:03:53;;;;;;;4.72;1.65;;;31.80;91.00;;;;;;1842909;77;21156;-75
2022/10/27 09:06:48;;;;;;;2.50;1.30;;;31.70;91.20;;;;;;1826135;77;21483;-75
2022/10/27 09:09:42;;;;;;;3.17;1.30;;;31.90;91.40;;;;;;1828266;77;21709;-74
2022/10/27 09:12:31;;;;;;;2.67;1.50;;;31.70;91.40;;;;;;1825361;77;21634;-76
2022/10/27 09:15:11;;;;;;;3.80;1.57;;;31.60;91.50;;;;;;1825903;77;21192;-75
2022/10/27 09:17:46;;;;;;;3.20;1.57;;;31.60;92.10;;;;;;1847098;76;21106;-75
2022/10/27 09:20:35;;;;;;;3.62;1.98;;;31.60;92.60;;;;;;1833157;76;21181;-75
2022/10/27 09:23:15;;;;;;;4.55;1.90;;;31.40;92.50;;;;;;1833927;76;22388;-76
2022/10/27 09:25:48;;;;;;;7.47;2.30;;;31.40;92.80;;;;;;1845296;76;21199;-75
2022/10/27 09:28:27;;;;;;;5.08;2.30;;;31.60;93.10;;;;;;1824887;76;21184;-73
2022/10/27 09:31:03;;;;;;;3.40;1.87;;;31.40;93.30;;;;;;1836864;76;21241;-75
2022/10/27 09:33:37;;;;;;;4.37;1.60;;;31.60;93.70;;;;;;1841267;78;21136;-74
2022/10/27 09:36:22;;;;;;;3.30;1.80;;;31.20;92.00;;;;;;1832000;76;21366;-74
2022/10/27 09:38:53;;;;;;;4.28;2.27;;;31.20;92.40;;;;;;1828395;76;21101;-74
2022/10/27 09:41:25;;;;;;;3.77;2.00;;;31.30;93.00;;;;;;1850725;76;21238;-74
2022/10/27 09:43:58;;;;;;;5.05;2.15;;;31.20;93.90;;;;;;1835779;76;21203;-73
2022/10/27 09:46:30;;;;;;;4.30;2.20;;;31.10;93.00;;;;;;1786961;78;21689;-72
2022/10/27 09:49:06;;;;;;;3.33;1.98;;;31.30;91.60;;;;;;1843550;75;21218;-73
2022/10/27 09:51:43;;;;;;;4.47;2.25;;;31.10;90.50;;;;;;1828055;77;21187;-75
2022/10/27 09:54:32;;;;;;;4.30;2.05;;;31.20;90.60;;;;;;1854142;76;21261;-75
2022/10/27 09:57:11;;;;;;;4.87;2.20;;;31.00;91.20;;;;;;1831366;78;21164;-75
2022/10/27 09:59:43;;;;;;;5.05;2.40;;;31.10;90.90;;;;;;1831130;78;21196;-75
2022/10/27 10:02:38;;;;;;;5.47;2.17;;;31.10;91.70;;;;;;1846235;77;21199;-74
2022/10/27 10:04:59;;;;;;;5.37;2.50;;;31.00;91.90;;;;;;1817006;77;21690;-74
2022/10/27 10:07:45;;;;;;;5.10;2.72;;;30.90;92.00;;;;;;1844453;76;21151;-76
2022/10/27 10:10:19;;;;;;;4.50;2.70;;;30.80;92.00;;;;;;1812494;78;21101;-75
2022/10/27 10:13:13;;;;;;;6.20;2.87;;;31.00;92.40;;;;;;1823625;77;21169;-76
2022/10/27 10:15:46;;;;;;;6.05;3.08;;;30.70;92.50;;;;;;1823181;76;21216;-75
2022/10/27 10:18:30;;;;;;;6.10;3.25;;;30.80;92.70;;;;;;1831481;76;21215;-75
2022/10/27 10:21:04;;;;;;;8.95;2.95;;;30.90;92.90;;;;;;1831230;76;21175;-75
2022/10/27 10:23:52;;;;;;;5.62;3.05;;;30.80;93.20;;;;;;1828120;77;21666;-76
2022/10/27 10:26:26;;;;;;;7.33;2.92;;;30.60;93.20;;;;;;1834496;77;21237;-75
2022/10/27 10:28:59;;;;;;;4.33;2.30;;;30.90;93.20;;;;;;1835891;77;21267;-74
2022/10/27 10:31:30;;;;;;;6.78;2.95;;;30.60;93.30;;;;;;1831257;76;21468;-77
2022/10/27 10:34:07;;;;;;;3.67;2.25;;;30.50;93.80;;;;;;1828796;76;21087;-75
2022/10/27 10:36:41;;;;;;;6.83;3.20;;;30.70;94.00;;;;;;1825377;76;21159;-78
2022/10/27 10:39:26;;;;;;;9.15;4.70;;;30.50;94.00;;;;;;1827684;77;21573;-75
2022/10/27 10:42:15;;;;;;;7.40;4.93;;;30.60;94.30;;;;;;1825105;76;21190;-76
2022/10/27 10:44:47;;;;;;;7.47;3.98;;;30.40;94.70;;;;;;1829359;77;21148;-76
2022/10/27 10:47:27;;;;;;;5.22;3.72;;;30.40;95.60;;;;;;1825657;77;21166;-74
2022/10/27 10:50:01;;;;;;;6.55;2.98;;;30.50;96.10;;;;;;1823070;77;21217;-77
2022/10/27 10:52:37;;;;;;;6.40;2.83;;;30.60;94.90;;;;;;1826748;77;21193;-76
2022/10/27 10:55:10;;;;;;;6.20;3.62;;;30.60;95.30;;;;;;1825625;77;21209;-76
2022/10/27 10:57:47;;;;;;;7.55;3.83;;;30.20;96.30;;;;;;1820104;77;21084;-75
2022/10/27 11:00:20;;;;;;;6.95;3.58;;;30.30;95.70;;;;;;1829688;76;21477;-76
2022/10/27 11:02:59;;;;;;;5.85;3.72;;;30.20;95.60;;;;;;1836637;76;21183;-76
2022/10/27 11:05:36;;;;;;;7.35;3.50;;;30.10;96.40;;;;;;1832318;76;21226;-76
2022/10/27 11:08:10;;;;;;;5.83;3.45;;;30.00;97.40;;;;;;1829467;77;21156;-76
2022/10/27 11:10:43;;;;;;;8.58;3.05;;;30.20;97.40;;;;;;1812983;77;21265;-74
2022/10/27 11:13:19;;;;;;;7.28;3.17;;;30.10;96.40;;;;;;1830658;77;21531;-75
2022/10/27 11:15:59;;;;;;;5.70;3.47;;;30.00;96.30;;;;;;1833661;76;21152;-76
2022/10/27 11:18:43;;;;;;;6.90;3.27;;;30.10;96.40;;;;;;1803292;79;21261;-76
2022/10/27 11:21:32;;;;;;;6.53;3.67;;;30.20;96.90;;;;;;1793444;79;21165;-77
2022/10/27 11:24:17;;;;;;;6.20;3.60;;;29.90;97.80;;;;;;1805575;79;21152;-76
2022/10/27 11:27:07;;;;;;;9.03;3.52;;;29.90;98.60;;;;;;1841626;76;21211;-77
2022/10/27 11:29:49;;;;;;;7.53;4.28;;;29.80;99.30;;;;;;1825281;76;21144;-76
2022/10/27 11:32:39;;;;;;;8.13;3.75;;;30.10;95.30;;;;;;1799238;79;21231;-76
2022/10/27 11:35:21;;;;;;;8.80;4.10;;;30.00;96.70;;;;;;1803202;78;21243;-75
2022/10/27 11:37:58;;;;;;;7.83;4.22;;;29.90;99.00;;;;;;1799893;77;21153;-77
2022/10/27 11:40:38;;;;;;;10.08;4.33;;;29.90;98.90;;;;;;1798891;79;21105;-77
2022/10/27 11:43:31;;;;;;;9.65;4.08;;;29.90;99.40;;;;;;1806371;79;21223;-74
2022/10/27 11:46:21;;;;;;;7.87;4.62;;;29.70;99.40;;;;;;1811412;78;21140;-76
2022/10/27 11:49:03;;;;;;;8.58;4.55;;;29.60;99.60;;;;;;1799399;78;21190;-74
2022/10/27 11:51:48;;;;;;;9.75;3.92;;;29.80;98.60;;;;;;1762109;80;21157;-78
2022/10/27 11:54:19;;;;;;;6.05;3.52;;;29.60;88.00;;;;;;1772228;80;21127;-86
2022/10/27 11:57:22;;;;;;;9.15;4.08;;;29.50;87.80;;;;;;1800793;79;21166;-86
2022/10/27 12:00:27;;;;;;;6.65;3.35;;;29.50;87.80;;;;;;1848602;76;21207;-87
2022/10/27 12:03:25;;;;;;;7.30;3.50;;;29.50;87.90;;;;;;1799680;79;21129;-85
2022/10/27 12:06:02;;;;;;;5.42;3.58;;;29.50;87.70;;;;;;1797992;79;21098;-85
2022/10/27 12:08:44;;;;;;;7.60;4.87;;;29.50;88.20;;;;;;1787332;79;21120;-86
2022/10/27 12:11:42;;;;;;;10.18;4.80;;;29.50;88.30;;;;;;1844920;76;21139;-86
2022/10/27 12:14:48;;;;;;;13.80;4.58;;;29.40;88.50;;;;;;1833438;77;21139;-86
2022/10/27 12:17:32;;;;;;;8.98;5.17;;;29.40;88.80;;;;;;1838121;77;21665;-87
2022/10/27 12:20:12;;;;;;;9.68;4.87;;;29.40;88.70;;;;;;1841175;75;21781;-87
2022/10/27 12:23:09;;;;;;;9.70;4.92;;;29.40;89.00;;;;;;1838549;75;21173;-87
2022/10/27 12:26:05;;;;;;;8.58;4.70;;;29.40;89.20;;;;;;1854202;75;21151;-84
2022/10/27 12:28:35;;;;;;;;;;;29.40;89.40;;;;;;1843577;77;21178;-87
2022/10/27 12:31:11;;;;;;;13.15;5.55;;;29.40;88.50;;;;;;1842077;77;20227;-86
2022/10/27 12:33:47;;;;;;;9.48;5.70;;;29.30;89.70;;;;;;1839756;75;21190;-86
2022/10/27 12:36:37;;;;;;;11.35;6.45;;;29.30;89.90;;;;;;1855577;75;21131;-85
2022/10/27 12:39:09;;;;;;;10.70;6.33;;;29.30;89.80;;;;;;1856960;75;21189;-85
2022/10/27 12:41:44;;;;;;;10.48;7.00;;;29.30;89.90;;;;;;1827231;77;21214;-86
2022/10/27 12:44:39;;;;;;;13.53;7.75;;;29.30;89.80;;;;;;1836058;76;21169;-86
2022/10/27 12:47:15;;;;;;;11.68;6.42;;;29.30;89.70;;;;;;1844784;75;21147;-86
2022/10/27 12:50:25;;;;;;;11.35;7.62;;;29.20;89.80;;;;;;1830674;77;21233;-85
2022/10/27 12:52:55;;;;;;;14.05;7.90;;;29.20;90.00;;;;;;1823821;76;21076;-87
2022/10/27 12:55:32;;;;;;;15.48;7.47;;;29.20;89.90;;;;;;1845328;76;21135;-84
2022/10/27 12:58:31;;;;;;;;;;;;;;;;;;;;;
2022/10/27 13:01:08;;;;;;;15.75;7.37;;;29.10;90.10;;;;;;1792166;77;21135;-86
2022/10/27 13:04:09;;;;;;;13.70;7.12;;;29.10;90.10;;;;;;1765178;79;21075;-89
2022/10/27 13:06:58;;;;;;;12.20;6.97;;;29.10;90.00;;;;;;1819998;77;21148;-86
2022/10/27 13:09:58;;;;;;;12.80;6.87;;;29.10;90.20;;;;;;1836342;77;21128;-87
2022/10/27 13:12:47;;;;;;;12.60;7.05;;;29.10;90.40;;;;;;1845731;75;21135;-87
2022/10/27 13:15:40;;;;;;;12.90;6.87;;;29.00;90.20;;;;;;1860345;75;21177;-86
2022/10/27 13:18:31;;;;;;;11.68;6.95;;;29.00;90.20;;;;;;1841511;75;21150;-88
2022/10/27 13:21:23;;;;;;;16.12;7.28;;;29.00;90.40;;;;;;1847607;75;22005;-87
2022/10/27 13:24:10;;;;;;;12.95;6.65;;;29.00;90.60;;;;;;1831222;76;21229;-84
2022/10/27 13:26:46;;;;;;;15.98;7.05;;;29.00;90.70;;;;;;1834976;76;21135;-88
2022/10/27 13:29:44;;;;;;;10.23;6.50;;;29.00;90.30;;;;;;1838364;77;21155;-87
2022/10/27 13:32:25;;;;;;;12.60;6.83;;;28.90;90.50;;;;;;1824479;77;21126;-87
2022/10/27 13:35:22;;;;;;;11.95;7.17;;;28.90;90.60;;;;;;1825804;77;21111;-87